Latest Weather Observations for Ben Nevis

IDV60801

Issued at 1:33 am EST Monday 17 June 2019 (issued every 10 minutes, with the page automatically refreshed every 10 minutes)

About weather observations | Map of weather stations | Latest weather observations for VIC | Other Formats
Station Details ID: 079101 Name: BEN NEVIS Lat: -37.23 Lon: 143.20 Height: 875.0 m
Data from the previous 72 hours. | See also: Recent months at Ben Nevis
Date/Time
EST
Temp
°C
App
Temp
°C
Dew
Point
°C
Rel
Hum
%
Delta-T
°C
Wind Press
QNH
hPa
Press
MSL
hPa
Rain since
9am
mm
Dir  Spd
km/h
Gust
km/h
Spd
kts
Gust
kts
17/01:30am 4.6 2.2 4.2 97 0.2 NW 6 9 3 5 - - 0.0
17/01:00am 4.8 2.4 4.4 97 0.2 WNW 6 9 3 5 - - 0.0
17/12:30am 5.2 2.9 4.8 97 0.2 NW 6 9 3 5 - - 0.0
17/12:00am 5.5 3.3 5.2 98 0.1 NW 6 9 3 5 - - 0.0
 
Date/Time
EST
Temp
°C
App
Temp
°C
Dew
Point
°C
Rel
Hum
%
Delta-T
°C
Wind Press
QNH
hPa
Press
MSL
hPa
Rain since
9am
mm
Dir  Spd
km/h
Gust
km/h
Spd
kts
Gust
kts
16/11:30pm 5.7 3.3 5.4 98 0.1 NNW 7 11 4 6 - - 0.0
16/11:00pm 6.2 3.5 5.8 97 0.2 NNW 9 13 5 7 - - 0.0
16/10:30pm 6.1 3.4 5.5 96 0.3 NNW 9 13 5 7 - - 0.0
16/10:00pm 6.1 3.4 5.5 96 0.3 NNW 9 15 5 8 - - 0.0
16/09:30pm 6.2 3.5 5.8 97 0.2 NNW 9 13 5 7 - - 0.0
16/09:00pm 6.1 3.4 5.7 97 0.2 NNW 9 15 5 8 - - 0.0
16/08:30pm 5.9 3.5 5.3 96 0.3 N 7 11 4 6 - - 0.0
16/08:00pm 6.2 3.5 5.6 96 0.3 NNW 9 13 5 7 - - 0.0
16/07:30pm 6.1 3.4 5.5 96 0.3 NNW 9 11 5 6 - - 0.0
16/07:00pm 6.3 3.6 5.7 96 0.3 NNW 9 13 5 7 - - 0.0
16/06:30pm 6.4 3.7 5.8 96 0.3 N 9 13 5 7 - - 0.0
16/06:00pm 6.4 3.7 5.7 95 0.3 NNW 9 13 5 7 - - 0.0
16/05:30pm 6.7 4.0 5.8 94 0.4 NNW 9 15 5 8 - - 0.0
16/05:00pm 7.4 5.3 6.5 94 0.4 NNW 7 11 4 6 - - 0.0
16/04:30pm 8.0 5.9 6.8 92 0.6 NNW 7 13 4 7 - - 0.0
16/04:00pm 8.3 6.3 7.1 92 0.6 NNE 7 13 4 7 - - 0.0
16/03:30pm 8.5 6.6 6.8 89 0.8 NNW 6 13 3 7 - - 0.0
16/03:00pm 8.7 6.8 6.8 88 0.9 NW 6 11 3 6 - - 0.0
16/02:30pm 8.9 7.0 7.4 90 0.7 NW 7 11 4 6 - - 0.0
16/02:00pm 9.0 7.0 7.0 87 1.0 NNW 7 13 4 7 - - 0.0
16/01:30pm 9.5 7.2 7.3 86 1.1 NW 9 15 5 8 - - 0.0
16/01:00pm 9.5 7.5 7.3 86 1.1 N 7 20 4 11 - - 0.0
16/12:30pm 9.7 7.4 7.6 87 1.1 NNW 9 17 5 9 - - 0.0
16/12:00pm 9.8 7.4 6.9 82 1.4 N 9 17 5 9 - - 0.0
16/11:30am 9.0 6.6 7.1 88 0.9 N 9 19 5 10 - - 0.0
16/11:00am 8.1 5.9 7.8 98 0.1 N 9 13 5 7 - - 0.0
16/10:30am 7.6 5.3 7.5 99 0.0 N 9 15 5 8 - - 0.0
16/10:00am 7.2 5.2 7.1 99 0.0 N 7 17 4 9 - - 0.0
16/09:30am 6.8 4.9 6.7 99 0.0 NW 6 13 3 7 - - 0.0
16/09:00am 6.5 4.0 6.4 99 0.0 N 9 15 5 8 - - 0.2
16/08:30am 6.2 3.6 6.1 99 0.0 N 9 20 5 11 - - 0.2
16/08:00am 6.1 3.1 6.0 99 0.0 N 11 19 6 10 - - 0.2
16/07:30am 6.1 3.1 6.0 99 0.0 N 11 15 6 8 - - 0.2
16/07:00am 6.1 3.1 6.0 99 0.0 N 11 17 6 9 - - 0.2
16/06:30am 6.2 3.2 6.1 99 0.0 N 11 17 6 9 - - 0.2
16/06:00am 6.1 3.1 6.0 99 0.0 N 11 20 6 11 - - 0.2
16/05:30am 6.1 2.7 6.0 99 0.0 N 13 17 7 9 - - 0.2
16/05:00am 5.9 2.5 5.8 99 0.0 NNW 13 19 7 10 - - 0.2
16/04:30am 5.7 3.0 5.6 99 0.0 N 9 13 5 7 - - 0.2
16/04:00am 6.3 3.7 6.2 99 0.0 N 9 15 5 8 - - 0.2
16/03:30am 6.3 3.3 6.2 99 0.0 N 11 22 6 12 - - 0.2
16/03:00am 6.3 3.3 6.2 99 0.0 NNE 11 17 6 9 - - 0.2
16/02:30am 6.2 3.6 6.1 99 0.0 NNE 9 13 5 7 - - 0.2
16/02:00am 6.4 3.8 6.3 99 0.0 N 9 17 5 9 - - 0.2
16/01:30am 6.4 3.5 6.3 99 0.0 N 11 17 6 9 - - 0.2
16/01:00am 6.4 3.8 6.3 99 0.0 N 9 13 5 7 - - 0.2
16/12:30am 6.3 3.7 6.2 99 0.0 N 9 15 5 8 - - 0.2
16/12:00am 5.9 3.2 5.8 99 0.0 N 9 13 5 7 - - 0.2
 
Date/Time
EST
Temp
°C
App
Temp
°C
Dew
Point
°C
Rel
Hum
%
Delta-T
°C
Wind Press
QNH
hPa
Press
MSL
hPa
Rain since
9am
mm
Dir  Spd
km/h
Gust
km/h
Spd
kts
Gust
kts
15/11:30pm 5.6 2.9 5.5 99 0.0 N 9 13 5 7 - - 0.2
15/11:00pm 5.6 2.9 5.5 99 0.0 N 9 15 5 8 - - 0.2
15/10:30pm 5.6 2.8 5.3 98 0.1 N 9 13 5 7 - - 0.2
15/10:00pm 5.8 3.1 5.7 99 0.0 NNE 9 13 5 7 - - 0.2
15/09:30pm 5.9 3.2 5.8 99 0.0 N 9 15 5 8 - - 0.2
15/09:00pm 5.6 2.8 5.3 98 0.1 N 9 13 5 7 - - 0.2
15/08:30pm 5.6 2.8 5.3 98 0.1 N 9 15 5 8 - - 0.2
15/08:00pm 6.0 3.3 5.7 98 0.1 N 9 15 5 8 - - 0.2
15/07:30pm 6.0 3.3 5.7 98 0.1 NNW 9 13 5 7 - - 0.2
15/07:00pm 5.5 2.7 5.2 98 0.1 N 9 13 5 7 - - 0.2
15/06:30pm 6.1 3.4 5.8 98 0.1 N 9 13 5 7 - - 0.2
15/06:00pm 5.9 3.6 5.5 97 0.2 N 7 11 4 6 - - 0.2
15/05:30pm 6.6 4.0 6.2 97 0.2 NNW 9 15 5 8 - - 0.2
15/05:00pm 6.7 4.1 6.1 96 0.3 N 9 15 5 8 - - 0.2
15/04:30pm 6.8 4.2 6.2 96 0.3 N 9 13 5 7 - - 0.2
15/04:00pm 7.3 5.3 6.2 93 0.5 NNW 6 13 3 7 - - 0.2
15/03:30pm 8.0 6.0 6.3 89 0.8 N 6 9 3 5 - - 0.2
15/03:00pm 8.6 6.7 6.7 88 0.9 NW 6 13 3 7 - - 0.2
15/02:30pm 8.6 6.7 6.9 89 0.8 NNW 6 11 3 6 - - 0.2
15/02:00pm 7.3 4.6 5.8 90 0.7 NNW 9 15 5 8 - - 0.2
15/01:30pm 8.9 7.2 7.5 91 0.7 NNW 6 11 3 6 - - 0.2
15/01:00pm 7.4 6.1 6.0 91 0.7 WNW 2 7 1 4 - - 0.2
15/12:30pm 7.2 6.1 6.8 97 0.2 WNW 2 7 1 4 - - 0.2
15/12:00pm 6.9 4.8 6.8 99 0.0 W 7 11 4 6 - - 0.2
15/11:30am 6.4 4.4 6.3 99 0.0 WSW 6 9 3 5 - - 0.2
15/11:00am 5.7 3.4 5.6 99 0.0 W 7 13 4 7 - - 0.2
15/10:30am 6.2 3.6 6.1 99 0.0 WNW 9 13 5 7 - - 0.2
15/10:00am 6.1 3.9 6.0 99 0.0 WNW 7 11 4 6 - - 0.0
15/09:30am 5.4 3.0 5.3 99 0.0 NW 7 13 4 7 - - 0.0
15/09:00am 5.7 3.4 5.6 99 0.0 W 7 13 4 7 - - 2.0
15/08:30am 5.2 3.3 5.1 99 0.0 NW 4 9 2 5 - - 2.0
15/08:00am 5.3 2.9 5.2 99 0.0 WNW 7 11 4 6 - - 1.8
15/07:30am 5.4 3.2 5.3 99 0.0 WNW 6 11 3 6 - - 1.8
15/07:00am 5.6 3.4 5.5 99 0.0 WNW 6 11 3 6 - - 1.8
15/06:30am 5.6 2.9 5.5 99 0.0 NW 9 22 5 12 - - 1.6
15/06:00am 5.7 3.6 5.6 99 0.0 WNW 6 9 3 5 - - 1.6
15/05:30am 5.7 3.4 5.6 99 0.0 NW 7 15 4 8 - - 1.4
15/05:00am 5.8 3.5 5.7 99 0.0 NW 7 13 4 7 - - 1.2
15/04:30am 5.9 3.2 5.8 99 0.0 NNW 9 19 5 10 - - 1.2
15/04:00am 5.9 3.6 5.8 99 0.0 NNW 7 17 4 9 - - 1.0
15/03:30am 5.8 3.5 5.7 99 0.0 NNW 7 19 4 10 - - 0.8
15/03:00am 5.2 3.0 5.1 99 0.0 NW 6 19 3 10 - - 0.6
15/02:30am 5.1 2.6 4.8 98 0.1 NNW 7 17 4 9 - - 0.6
15/02:00am 5.3 2.5 5.0 98 0.1 NNW 9 19 5 10 - - 0.6
15/01:30am 5.0 2.5 4.7 98 0.1 NNW 7 13 4 7 - - 0.6
15/01:00am 4.7 2.1 4.4 98 0.1 NW 7 11 4 6 - - 0.6
15/12:30am 5.3 2.5 5.0 98 0.1 NW 9 17 5 9 - - 0.6
15/12:00am 5.5 3.1 5.2 98 0.1 NW 7 11 4 6 - - 0.6
 
Date/Time
EST
Temp
°C
App
Temp
°C
Dew
Point
°C
Rel
Hum
%
Delta-T
°C
Wind Press
QNH
hPa
Press
MSL
hPa
Rain since
9am
mm
Dir  Spd
km/h
Gust
km/h
Spd
kts
Gust
kts
14/11:30pm 5.1 2.6 4.8 98 0.1 NW 7 13 4 7 - - 0.6
14/11:00pm 4.6 1.6 4.3 98 0.1 WNW 9 19 5 10 - - 0.6
14/10:30pm 4.5 1.5 4.2 98 0.1 WNW 9 19 5 10 - - 0.6
14/10:00pm 4.7 1.4 4.4 98 0.1 W 11 19 6 10 - - 0.6
14/09:30pm 4.6 1.6 4.3 98 0.1 W 9 17 5 9 - - 0.6
14/09:00pm 4.8 1.1 4.5 98 0.1 W 13 20 7 11 - - 0.6
14/08:30pm 4.9 0.8 4.6 98 0.1 WSW 15 24 8 13 - - 0.6
14/08:00pm 5.0 0.0 4.7 98 0.1 WSW 20 28 11 15 - - 0.6
14/07:30pm 4.9 0.1 4.6 98 0.1 WSW 19 30 10 16 - - 0.6
14/07:00pm 4.6 -1.6 4.3 98 0.1 WSW 26 37 14 20 - - 0.4
14/06:30pm 4.7 -1.1 4.6 99 0.0 WSW 24 35 13 19 - - 0.4
14/06:00pm 5.3 -0.3 5.2 99 0.0 WSW 24 35 13 19 - - 0.4
14/05:30pm 6.0 1.3 5.9 99 0.0 WSW 20 30 11 16 - - 0.4
14/05:00pm 6.1 2.0 6.0 99 0.0 W 17 26 9 14 - - 0.4
14/04:30pm 6.9 2.6 6.8 99 0.0 W 19 28 10 15 - - 0.4
14/04:00pm 7.0 2.5 6.9 99 0.0 W 20 37 11 20 - - 0.4
14/03:30pm 8.5 5.7 8.4 99 0.1 WNW 13 28 7 15 - - 0.4
14/03:00pm 8.5 5.7 8.4 99 0.1 N 13 28 7 15 - - 0.4
14/02:30pm 8.3 5.4 8.2 99 0.1 N 13 33 7 18 - - 0.4
14/02:00pm 8.2 5.3 8.1 99 0.1 NNW 13 24 7 13 - - 0.2
14/01:30pm 7.6 4.6 7.5 99 0.0 N 13 28 7 15 - - 0.0
14/01:00pm 7.4 4.3 7.3 99 0.0 N 13 32 7 17 - - 0.0
14/12:30pm 7.2 3.7 7.1 99 0.0 NNW 15 35 8 19 - - 0.0
14/12:00pm 7.0 3.1 6.9 99 0.0 NNW 17 35 9 19 - - 0.0
14/11:30am 7.0 3.4 6.9 99 0.0 NNW 15 32 8 17 - - 0.0
14/11:00am 6.8 3.2 6.7 99 0.0 NNW 15 26 8 14 - - 0.0
14/10:30am 6.6 3.3 6.5 99 0.0 NNW 13 24 7 13 - - 0.0
14/10:00am 6.5 3.6 6.4 99 0.0 NNW 11 24 6 13 - - 0.0
14/09:30am 6.4 3.1 6.3 99 0.0 N 13 24 7 13 - - 0.0
14/09:00am 6.2 2.8 6.1 99 0.0 NNW 13 26 7 14 - - 1.8
14/08:30am 5.9 2.5 5.8 99 0.0 NNW 13 32 7 17 - - 1.8
14/08:00am 5.5 2.0 5.4 99 0.0 NNW 13 28 7 15 - - 1.8
14/07:30am 5.7 2.6 5.6 99 0.0 NNW 11 22 6 12 - - 1.8
14/07:00am 5.8 2.7 5.7 99 0.0 NNW 11 22 6 12 - - 1.8
14/06:30am 6.1 2.3 6.0 99 0.0 NW 15 24 8 13 - - 1.8
14/06:00am 5.8 3.1 5.7 99 0.0 NW 9 17 5 9 - - 1.8
14/05:30am 5.8 2.7 5.7 99 0.0 NNW 11 19 6 10 - - 1.8
14/05:00am 5.9 3.2 5.8 99 0.0 NNW 9 19 5 10 - - 1.8
14/04:30am 6.0 3.0 5.9 99 0.0 NW 11 22 6 12 - - 1.8
14/04:00am 6.1 3.5 6.0 99 0.0 NNW 9 22 5 12 - - 1.8
14/03:30am 6.0 3.4 5.9 99 0.0 NNW 9 17 5 9 - - 1.6
14/03:00am 6.0 3.0 5.9 99 0.0 NNW 11 20 6 11 - - 1.6
14/02:30am 6.0 3.4 5.9 99 0.0 NNW 9 19 5 10 - - 1.6
14/02:00am 6.0 3.4 5.9 99 0.0 WNW 9 17 5 9 - - 1.6

Other formats

Comma delimited format used in spreadsheet applications
http://www.bom.gov.au/fwo/IDV60801/IDV60801.94835.axf

JavaScript Object Notation format (JSON) in row-major order
http://www.bom.gov.au/fwo/IDV60801/IDV60801.94835.json

Data quality

Most of these data are generated automatically and are frequently updated. Quality checks on data are not normally performed. It is possible for incorrect values to appear. Refer to information at About Latest Weather Observations and please check the disclaimer before using these data.